sensor_id;sensor_type;location;lat;lon;timestamp;pressure;altitude;pressure_sealevel;temperature;humidity
57000;BME280;42891;50.006;21.964;2023-03-01T00:01:30;100202.44;;;-1.10;72.14
57000;BME280;42891;50.006;21.964;2023-03-01T00:05:31;100199.03;;;-1.10;72.15
57000;BME280;42891;50.006;21.964;2023-03-01T00:09:32;100191.13;;;-1.06;72.36
57000;BME280;42891;50.006;21.964;2023-03-01T00:13:32;100197.84;;;-0.95;71.86
57000;BME280;42891;50.006;21.964;2023-03-01T00:17:33;100191.06;;;-1.01;70.87
57000;BME280;42891;50.006;21.964;2023-03-01T00:21:33;100196.28;;;-1.02;72.14
57000;BME280;42891;50.006;21.964;2023-03-01T00:25:41;100182.56;;;-1.08;72.24
57000;BME280;42891;50.006;21.964;2023-03-01T00:29:41;100184.19;;;-1.04;72.58
57000;BME280;42891;50.006;21.964;2023-03-01T00:33:42;100183.25;;;-1.42;71.56
57000;BME280;42891;50.006;21.964;2023-03-01T00:37:43;100171.31;;;-1.49;73.72
57000;BME280;42891;50.006;21.964;2023-03-01T00:41:43;100173.13;;;-1.52;74.13
57000;BME280;42891;50.006;21.964;2023-03-01T00:45:44;100149.94;;;-1.60;73.41
57000;BME280;42891;50.006;21.964;2023-03-01T00:49:44;100166.28;;;-1.57;74.99
57000;BME280;42891;50.006;21.964;2023-03-01T00:53:46;100149.16;;;-1.64;74.28
57000;BME280;42891;50.006;21.964;2023-03-01T00:57:46;100157.66;;;-1.57;74.05
57000;BME280;42891;50.006;21.964;2023-03-01T01:01:47;100158.59;;;-1.61;74.70
57000;BME280;42891;50.006;21.964;2023-03-01T01:05:47;100143.72;;;-1.95;76.38
57000;BME280;42891;50.006;21.964;2023-03-01T01:09:47;100154.13;;;-1.98;76.22
57000;BME280;42891;50.006;21.964;2023-03-01T01:13:48;100153.63;;;-2.17;77.07
57000;BME280;42891;50.006;21.964;2023-03-01T01:17:49;100150.44;;;-2.32;77.77
57000;BME280;42891;50.006;21.964;2023-03-01T01:21:49;100126.66;;;-2.54;78.04
57000;BME280;42891;50.006;21.964;2023-03-01T01:25:49;100140.94;;;-2.33;77.66
57000;BME280;42891;50.006;21.964;2023-03-01T01:29:52;100130.22;;;-2.13;75.29
57000;BME280;42891;50.006;21.964;2023-03-01T01:33:53;100125.16;;;-2.17;75.06
57000;BME280;42891;50.006;21.964;2023-03-01T01:37:54;100136.13;;;-2.04;74.72
57000;BME280;42891;50.006;21.964;2023-03-01T01:41:55;100122.16;;;-1.96;74.32
57000;BME280;42891;50.006;21.964;2023-03-01T01:46:03;100112.44;;;-2.30;75.89
57000;BME280;42891;50.006;21.964;2023-03-01T01:50:05;100122.91;;;-2.37;76.28
57000;BME280;42891;50.006;21.964;2023-03-01T01:54:15;100110.50;;;-2.68;77.38
57000;BME280;42891;50.006;21.964;2023-03-01T01:58:19;100103.16;;;-2.43;77.18
57000;BME280;42891;50.006;21.964;2023-03-01T02:02:21;100098.50;;;-2.23;76.85
57000;BME280;42891;50.006;21.964;2023-03-01T02:06:45;100106.97;;;-2.14;75.29
57000;BME280;42891;50.006;21.964;2023-03-01T02:10:51;100093.97;;;-2.11;74.26
57000;BME280;42891;50.006;21.964;2023-03-01T02:14:52;100100.84;;;-2.10;73.48
57000;BME280;42891;50.006;21.964;2023-03-01T02:18:53;100100.34;;;-2.29;75.96
57000;BME280;42891;50.006;21.964;2023-03-01T02:22:53;100113.38;;;-2.34;75.34
57000;BME280;42891;50.006;21.964;2023-03-01T02:26:56;100097.97;;;-2.42;76.21
57000;BME280;42891;50.006;21.964;2023-03-01T02:30:56;100093.50;;;-2.32;75.88
57000;BME280;42891;50.006;21.964;2023-03-01T02:35:17;100102.06;;;-2.28;75.26
57000;BME280;42891;50.006;21.964;2023-03-01T02:39:23;100105.81;;;-2.46;75.71
57000;BME280;42891;50.006;21.964;2023-03-01T02:43:30;100110.22;;;-2.50;76.71
57000;BME280;42891;50.006;21.964;2023-03-01T02:47:31;100090.88;;;-2.80;77.58
57000;BME280;42891;50.006;21.964;2023-03-01T02:55:53;100094.53;;;-2.42;74.85
57000;BME280;42891;50.006;21.964;2023-03-01T02:59:55;100123.75;;;-2.35;74.09
57000;BME280;42891;50.006;21.964;2023-03-01T03:03:57;100129.78;;;-2.36;73.50
57000;BME280;42891;50.006;21.964;2023-03-01T03:08:02;100122.78;;;-2.30;73.45
57000;BME280;42891;50.006;21.964;2023-03-01T03:12:02;100126.22;;;-2.29;72.21
57000;BME280;42891;50.006;21.964;2023-03-01T03:16:03;100122.03;;;-2.36;73.79
57000;BME280;42891;50.006;21.964;2023-03-01T03:20:05;100102.53;;;-2.56;74.74
57000;BME280;42891;50.006;21.964;2023-03-01T03:24:06;100094.94;;;-2.67;75.94
57000;BME280;42891;50.006;21.964;2023-03-01T03:28:07;100127.59;;;-2.61;76.32
57000;BME280;42891;50.006;21.964;2023-03-01T03:32:10;100099.41;;;-2.77;76.67
57000;BME280;42891;50.006;21.964;2023-03-01T03:36:15;100135.34;;;-2.58;76.04
57000;BME280;42891;50.006;21.964;2023-03-01T03:40:17;100135.09;;;-2.44;76.56
57000;BME280;42891;50.006;21.964;2023-03-01T03:44:18;100111.38;;;-2.69;75.79
57000;BME280;42891;50.006;21.964;2023-03-01T03:48:18;100101.19;;;-2.79;76.67
57000;BME280;42891;50.006;21.964;2023-03-01T03:52:19;100086.56;;;-2.80;75.55
57000;BME280;42891;50.006;21.964;2023-03-01T03:56:19;100115.75;;;-2.73;75.87
57000;BME280;42891;50.006;21.964;2023-03-01T04:00:21;100106.56;;;-2.93;76.95
57000;BME280;42891;50.006;21.964;2023-03-01T04:04:23;100112.66;;;-2.97;77.21
57000;BME280;42891;50.006;21.964;2023-03-01T04:08:24;100110.19;;;-3.04;77.28
57000;BME280;42891;50.006;21.964;2023-03-01T04:12:24;100099.91;;;-3.08;76.53
57000;BME280;42891;50.006;21.964;2023-03-01T04:16:24;100115.16;;;-2.92;76.47
57000;BME280;42891;50.006;21.964;2023-03-01T04:20:28;100115.91;;;-2.84;75.24
57000;BME280;42891;50.006;21.964;2023-03-01T04:24:29;100106.28;;;-2.74;73.63
57000;BME280;42891;50.006;21.964;2023-03-01T04:32:32;100107.97;;;-2.71;72.60
57000;BME280;42891;50.006;21.964;2023-03-01T04:36:33;100119.97;;;-2.67;72.68
57000;BME280;42891;50.006;21.964;2023-03-01T04:40:35;100117.66;;;-2.84;73.14
57000;BME280;42891;50.006;21.964;2023-03-01T04:44:35;100119.25;;;-2.77;72.54
57000;BME280;42891;50.006;21.964;2023-03-01T04:48:36;100120.41;;;-2.95;72.17
57000;BME280;42891;50.006;21.964;2023-03-01T04:52:37;100101.66;;;-3.11;74.48
57000;BME280;42891;50.006;21.964;2023-03-01T04:56:38;100063.56;;;-3.56;76.62
57000;BME280;42891;50.006;21.964;2023-03-01T05:00:38;100093.53;;;-3.44;77.72
57000;BME280;42891;50.006;21.964;2023-03-01T05:04:38;100102.06;;;-3.39;77.10
57000;BME280;42891;50.006;21.964;2023-03-01T05:08:39;100118.81;;;-3.05;75.55
57000;BME280;42891;50.006;21.964;2023-03-01T05:12:40;100104.97;;;-3.01;74.68
57000;BME280;42891;50.006;21.964;2023-03-01T05:16:40;100119.75;;;-3.11;73.00
57000;BME280;42891;50.006;21.964;2023-03-01T05:20:41;100118.84;;;-3.07;73.03
57000;BME280;42891;50.006;21.964;2023-03-01T05:24:42;100123.34;;;-3.21;74.29
57000;BME280;42891;50.006;21.964;2023-03-01T05:28:42;100131.00;;;-3.15;73.54
57000;BME280;42891;50.006;21.964;2023-03-01T05:32:45;100133.38;;;-3.01;73.68
57000;BME280;42891;50.006;21.964;2023-03-01T05:36:45;100134.19;;;-2.96;74.21
57000;BME280;42891;50.006;21.964;2023-03-01T05:40:47;100136.78;;;-2.98;72.96
57000;BME280;42891;50.006;21.964;2023-03-01T05:44:48;100133.44;;;-3.04;73.16
57000;BME280;42891;50.006;21.964;2023-03-01T05:48:48;100135.25;;;-3.11;74.74
57000;BME280;42891;50.006;21.964;2023-03-01T05:52:51;100138.09;;;-3.28;77.33
57000;BME280;42891;50.006;21.964;2023-03-01T05:56:51;100118.38;;;-3.35;77.42
57000;BME280;42891;50.006;21.964;2023-03-01T06:00:52;100107.22;;;-3.39;77.73
57000;BME280;42891;50.006;21.964;2023-03-01T06:04:52;100113.91;;;-3.24;78.91
57000;BME280;42891;50.006;21.964;2023-03-01T06:08:54;100126.78;;;-3.21;79.44
57000;BME280;42891;50.006;21.964;2023-03-01T06:12:55;100092.38;;;-3.23;79.82
57000;BME280;42891;50.006;21.964;2023-03-01T06:16:55;100111.25;;;-3.18;80.12
57000;BME280;42891;50.006;21.964;2023-03-01T06:20:56;100099.25;;;-3.22;80.83
57000;BME280;42891;50.006;21.964;2023-03-01T06:24:56;100102.63;;;-3.18;82.19
57000;BME280;42891;50.006;21.964;2023-03-01T06:28:56;100084.63;;;-3.23;81.99
57000;BME280;42891;50.006;21.964;2023-03-01T06:32:57;100082.34;;;-2.85;82.04
57000;BME280;42891;50.006;21.964;2023-03-01T06:37:00;100071.81;;;-2.73;81.51
57000;BME280;42891;50.006;21.964;2023-03-01T06:41:02;100080.94;;;-2.53;80.67
57000;BME280;42891;50.006;21.964;2023-03-01T06:45:04;100086.69;;;-2.37;81.06
57000;BME280;42891;50.006;21.964;2023-03-01T06:49:05;100081.97;;;-2.15;80.50
57000;BME280;42891;50.006;21.964;2023-03-01T06:53:09;100088.63;;;-2.02;80.10
57000;BME280;42891;50.006;21.964;2023-03-01T06:57:09;100090.03;;;-1.85;79.54
57000;BME280;42891;50.006;21.964;2023-03-01T07:01:09;100084.56;;;-1.72;79.80
57000;BME280;42891;50.006;21.964;2023-03-01T07:05:10;100098.22;;;-1.63;79.83
57000;BME280;42891;50.006;21.964;2023-03-01T07:09:10;100087.00;;;-1.64;80.18
57000;BME280;42891;50.006;21.964;2023-03-01T07:13:10;100096.00;;;-1.40;79.82
57000;BME280;42891;50.006;21.964;2023-03-01T07:17:11;100089.63;;;-1.25;79.29
57000;BME280;42891;50.006;21.964;2023-03-01T07:21:12;100086.81;;;-1.15;80.20
57000;BME280;42891;50.006;21.964;2023-03-01T07:25:13;100091.72;;;-1.03;80.67
57000;BME280;42891;50.006;21.964;2023-03-01T07:29:13;100058.13;;;-1.08;79.79
57000;BME280;42891;50.006;21.964;2023-03-01T07:33:14;100065.81;;;-1.05;81.37
57000;BME280;42891;50.006;21.964;2023-03-01T07:37:14;100054.16;;;-0.87;81.25
57000;BME280;42891;50.006;21.964;2023-03-01T07:41:15;100062.84;;;-0.89;80.55
57000;BME280;42891;50.006;21.964;2023-03-01T07:45:15;100054.56;;;-0.67;80.95
57000;BME280;42891;50.006;21.964;2023-03-01T07:49:15;100044.19;;;-0.67;80.82
57000;BME280;42891;50.006;21.964;2023-03-01T07:53:15;100029.38;;;-0.64;81.11
57000;BME280;42891;50.006;21.964;2023-03-01T07:57:16;100054.69;;;-0.39;79.94
57000;BME280;42891;50.006;21.964;2023-03-01T08:01:18;100066.53;;;-0.29;78.78
57000;BME280;42891;50.006;21.964;2023-03-01T08:05:19;100057.78;;;-0.25;78.16
57000;BME280;42891;50.006;21.964;2023-03-01T08:09:22;100067.84;;;-0.12;76.21
57000;BME280;42891;50.006;21.964;2023-03-01T08:13:22;100048.59;;;-0.05;76.35
57000;BME280;42891;50.006;21.964;2023-03-01T08:17:22;100054.19;;;0.11;76.42
57000;BME280;42891;50.006;21.964;2023-03-01T08:21:23;100063.09;;;0.33;76.36
57000;BME280;42891;50.006;21.964;2023-03-01T08:25:23;100063.56;;;0.46;75.34
57000;BME280;42891;50.006;21.964;2023-03-01T08:29:23;100059.81;;;0.55;74.40
57000;BME280;42891;50.006;21.964;2023-03-01T08:33:26;100060.41;;;0.65;75.39
57000;BME280;42891;50.006;21.964;2023-03-01T08:37:27;100062.56;;;0.79;73.72
57000;BME280;42891;50.006;21.964;2023-03-01T08:41:31;100038.38;;;0.77;72.68
57000;BME280;42891;50.006;21.964;2023-03-01T08:45:31;100038.06;;;0.86;73.58
57000;BME280;42891;50.006;21.964;2023-03-01T08:49:31;100043.69;;;1.00;73.39
57000;BME280;42891;50.006;21.964;2023-03-01T08:53:32;100056.41;;;1.10;70.41
57000;BME280;42891;50.006;21.964;2023-03-01T08:57:32;100056.25;;;1.14;66.78
57000;BME280;42891;50.006;21.964;2023-03-01T09:01:33;100061.84;;;1.29;66.46
57000;BME280;42891;50.006;21.964;2023-03-01T09:05:34;100049.78;;;1.26;66.25
57000;BME280;42891;50.006;21.964;2023-03-01T09:09:35;100043.50;;;1.33;63.90
57000;BME280;42891;50.006;21.964;2023-03-01T09:13:35;100057.66;;;1.50;62.94
57000;BME280;42891;50.006;21.964;2023-03-01T09:17:36;100055.88;;;1.52;62.75
57000;BME280;42891;50.006;21.964;2023-03-01T09:21:37;100029.25;;;1.44;60.41
57000;BME280;42891;50.006;21.964;2023-03-01T09:25:37;100052.78;;;1.66;61.27
57000;BME280;42891;50.006;21.964;2023-03-01T09:29:37;100054.97;;;1.78;59.22
57000;BME280;42891;50.006;21.964;2023-03-01T09:33:39;100054.91;;;1.80;59.20
57000;BME280;42891;50.006;21.964;2023-03-01T09:37:40;100052.78;;;1.91;59.39
57000;BME280;42891;50.006;21.964;2023-03-01T09:45:53;100043.03;;;1.96;58.90
57000;BME280;42891;50.006;21.964;2023-03-01T09:54:06;100046.44;;;2.22;58.23
57000;BME280;42891;50.006;21.964;2023-03-01T10:06:26;100041.69;;;2.33;55.93
57000;BME280;42891;50.006;21.964;2023-03-01T10:10:32;100033.28;;;2.49;56.67
57000;BME280;42891;50.006;21.964;2023-03-01T10:14:48;100034.19;;;2.48;57.18
57000;BME280;42891;50.006;21.964;2023-03-01T10:18:59;100026.56;;;2.65;58.45
57000;BME280;42891;50.006;21.964;2023-03-01T10:23:00;100013.59;;;2.64;56.79
57000;BME280;42891;50.006;21.964;2023-03-01T10:27:05;100010.44;;;2.78;57.33
57000;BME280;42891;50.006;21.964;2023-03-01T10:31:14;100022.66;;;2.98;56.98
57000;BME280;42891;50.006;21.964;2023-03-01T10:35:17;100017.97;;;3.06;56.07
57000;BME280;42891;50.006;21.964;2023-03-01T10:39:22;100012.31;;;3.17;57.67
57000;BME280;42891;50.006;21.964;2023-03-01T10:43:28;99986.22;;;3.17;56.99
57000;BME280;42891;50.006;21.964;2023-03-01T10:47:32;100002.06;;;3.33;56.89
57000;BME280;42891;50.006;21.964;2023-03-01T10:51:32;99990.19;;;3.26;56.13
57000;BME280;42891;50.006;21.964;2023-03-01T10:55:36;100005.78;;;3.48;56.62
57000;BME280;42891;50.006;21.964;2023-03-01T10:59:38;99998.13;;;3.64;54.24
57000;BME280;42891;50.006;21.964;2023-03-01T11:03:38;99983.56;;;3.58;54.04
57000;BME280;42891;50.006;21.964;2023-03-01T11:08:07;99991.63;;;3.93;55.86
57000;BME280;42891;50.006;21.964;2023-03-01T11:12:14;99976.44;;;3.82;54.28
57000;BME280;42891;50.006;21.964;2023-03-01T11:16:23;99996.00;;;3.92;54.15
57000;BME280;42891;50.006;21.964;2023-03-01T11:24:46;99982.59;;;4.19;53.97
57000;BME280;42891;50.006;21.964;2023-03-01T11:28:51;99976.50;;;4.38;52.21
57000;BME280;42891;50.006;21.964;2023-03-01T11:37:24;99950.63;;;4.68;49.56
57000;BME280;42891;50.006;21.964;2023-03-01T11:41:30;99955.34;;;4.97;47.97
57000;BME280;42891;50.006;21.964;2023-03-01T11:54:46;99956.72;;;7.14;45.31
57000;BME280;42891;50.006;21.964;2023-03-01T12:12:32;99953.94;;;12.82;30.72
57000;BME280;42891;50.006;21.964;2023-03-01T12:17:10;99949.81;;;13.10;29.36
57000;BME280;42891;50.006;21.964;2023-03-01T12:21:24;99938.84;;;13.36;30.84
57000;BME280;42891;50.006;21.964;2023-03-01T12:25:39;99943.28;;;13.87;29.21
57000;BME280;42891;50.006;21.964;2023-03-01T12:34:31;99919.81;;;14.53;27.41
57000;BME280;42891;50.006;21.964;2023-03-01T12:38:31;99922.03;;;14.57;27.07
57000;BME280;42891;50.006;21.964;2023-03-01T12:42:41;99902.44;;;14.29;26.34
57000;BME280;42891;50.006;21.964;2023-03-01T12:51:26;99904.13;;;15.56;25.67
57000;BME280;42891;50.006;21.964;2023-03-01T12:55:33;99914.25;;;15.90;25.71
57000;BME280;42891;50.006;21.964;2023-03-01T12:59:42;99901.09;;;15.88;26.58
57000;BME280;42891;50.006;21.964;2023-03-01T13:16:48;99879.78;;;15.03;26.17
57000;BME280;42891;50.006;21.964;2023-03-01T13:20:52;99873.22;;;14.88;26.56
57000;BME280;42891;50.006;21.964;2023-03-01T13:25:16;99869.09;;;15.13;24.98
57000;BME280;42891;50.006;21.964;2023-03-01T13:29:26;99840.56;;;15.15;25.31
57000;BME280;42891;50.006;21.964;2023-03-01T13:37:37;99867.09;;;14.87;25.76
57000;BME280;42891;50.006;21.964;2023-03-01T13:45:45;99864.84;;;14.92;24.22
57000;BME280;42891;50.006;21.964;2023-03-01T13:53:48;99862.13;;;15.12;24.36
57000;BME280;42891;50.006;21.964;2023-03-01T13:57:51;99852.28;;;14.65;23.68
57000;BME280;42891;50.006;21.964;2023-03-01T14:01:58;99837.56;;;14.61;24.23
57000;BME280;42891;50.006;21.964;2023-03-01T14:06:05;99852.56;;;14.72;23.17
57000;BME280;42891;50.006;21.964;2023-03-01T14:10:11;99840.91;;;14.43;24.27
57000;BME280;42891;50.006;21.964;2023-03-01T14:18:47;99835.13;;;15.72;22.82
57000;BME280;42891;50.006;21.964;2023-03-01T14:22:55;99839.28;;;15.57;23.81
57000;BME280;42891;50.006;21.964;2023-03-01T14:26:56;99834.03;;;15.37;23.84
57000;BME280;42891;50.006;21.964;2023-03-01T14:30:58;99813.31;;;15.31;23.01
57000;BME280;42891;50.006;21.964;2023-03-01T14:34:59;99821.25;;;15.03;24.28
57000;BME280;42891;50.006;21.964;2023-03-01T14:39:00;99816.78;;;15.41;23.63
57000;BME280;42891;50.006;21.964;2023-03-01T14:43:11;99827.38;;;15.79;22.57
57000;BME280;42891;50.006;21.964;2023-03-01T14:47:15;99815.69;;;15.06;23.03
57000;BME280;42891;50.006;21.964;2023-03-01T14:51:16;99817.56;;;14.37;23.84
57000;BME280;42891;50.006;21.964;2023-03-01T14:55:19;99809.47;;;13.49;26.21
57000;BME280;42891;50.006;21.964;2023-03-01T14:59:22;99816.97;;;13.13;25.64
57000;BME280;42891;50.006;21.964;2023-03-01T15:03:35;99797.53;;;12.51;26.44
57000;BME280;42891;50.006;21.964;2023-03-01T15:07:40;99784.97;;;11.99;27.33
57000;BME280;42891;50.006;21.964;2023-03-01T15:11:41;99787.22;;;11.49;27.92
57000;BME280;42891;50.006;21.964;2023-03-01T15:15:44;99794.81;;;11.42;27.43
57000;BME280;42891;50.006;21.964;2023-03-01T15:19:46;99793.25;;;11.28;28.46
57000;BME280;42891;50.006;21.964;2023-03-01T15:23:50;99766.22;;;10.90;28.76
57000;BME280;42891;50.006;21.964;2023-03-01T15:27:54;99774.13;;;10.68;28.25
57000;BME280;42891;50.006;21.964;2023-03-01T15:32:03;99794.41;;;10.67;28.72
57000;BME280;42891;50.006;21.964;2023-03-01T15:36:44;99797.88;;;10.56;29.32
57000;BME280;42891;50.006;21.964;2023-03-01T15:40:49;99783.19;;;10.17;29.83
57000;BME280;42891;50.006;21.964;2023-03-01T15:45:08;99798.31;;;10.15;30.40
57000;BME280;42891;50.006;21.964;2023-03-01T15:49:40;99807.69;;;10.19;30.15
57000;BME280;42891;50.006;21.964;2023-03-01T15:53:43;99793.84;;;9.91;30.56
57000;BME280;42891;50.006;21.964;2023-03-01T15:57:48;99804.41;;;9.91;31.36
57000;BME280;42891;50.006;21.964;2023-03-01T16:01:49;99801.94;;;9.77;31.49
57000;BME280;42891;50.006;21.964;2023-03-01T16:05:50;99786.28;;;9.49;32.42
57000;BME280;42891;50.006;21.964;2023-03-01T16:09:51;99793.03;;;9.16;33.18
57000;BME280;42891;50.006;21.964;2023-03-01T16:13:51;99789.56;;;8.90;33.37
57000;BME280;42891;50.006;21.964;2023-03-01T16:17:51;99788.59;;;8.78;32.81
57000;BME280;42891;50.006;21.964;2023-03-01T16:21:52;99794.91;;;8.63;32.93
57000;BME280;42891;50.006;21.964;2023-03-01T16:25:52;99791.97;;;8.55;33.19
57000;BME280;42891;50.006;21.964;2023-03-01T16:29:52;99815.66;;;8.55;35.70
57000;BME280;42891;50.006;21.964;2023-03-01T16:33:57;99814.22;;;8.36;34.46
57000;BME280;42891;50.006;21.964;2023-03-01T16:37:59;99807.38;;;8.06;36.44
57000;BME280;42891;50.006;21.964;2023-03-01T16:42:00;99813.28;;;7.82;35.61
57000;BME280;42891;50.006;21.964;2023-03-01T16:46:01;99815.22;;;7.66;36.92
57000;BME280;42891;50.006;21.964;2023-03-01T16:50:01;99814.41;;;7.51;36.51
57000;BME280;42891;50.006;21.964;2023-03-01T16:54:02;99825.59;;;7.40;37.37
57000;BME280;42891;50.006;21.964;2023-03-01T16:58:04;99814.63;;;7.19;36.14
57000;BME280;42891;50.006;21.964;2023-03-01T17:02:06;99812.56;;;7.10;37.85
57000;BME280;42891;50.006;21.964;2023-03-01T17:06:10;99833.56;;;7.10;39.47
57000;BME280;42891;50.006;21.964;2023-03-01T17:10:12;99811.78;;;6.79;39.05
57000;BME280;42891;50.006;21.964;2023-03-01T17:14:12;99806.38;;;6.52;39.46
57000;BME280;42891;50.006;21.964;2023-03-01T17:18:12;99822.88;;;6.54;40.97
57000;BME280;42891;50.006;21.964;2023-03-01T17:22:13;99823.28;;;6.31;40.45
57000;BME280;42891;50.006;21.964;2023-03-01T17:26:16;99816.59;;;6.26;41.24
57000;BME280;42891;50.006;21.964;2023-03-01T17:30:16;99819.91;;;6.29;41.64
57000;BME280;42891;50.006;21.964;2023-03-01T17:34:17;99828.50;;;6.01;41.91
57000;BME280;42891;50.006;21.964;2023-03-01T17:38:18;99808.28;;;6.03;43.27
57000;BME280;42891;50.006;21.964;2023-03-01T17:42:18;99828.75;;;5.80;43.27
57000;BME280;42891;50.006;21.964;2023-03-01T17:46:18;99827.13;;;5.46;43.22
57000;BME280;42891;50.006;21.964;2023-03-01T17:50:19;99819.56;;;5.24;44.32
57000;BME280;42891;50.006;21.964;2023-03-01T17:54:19;99828.50;;;5.20;44.78
57000;BME280;42891;50.006;21.964;2023-03-01T17:58:19;99828.75;;;4.64;45.39
57000;BME280;42891;50.006;21.964;2023-03-01T18:02:21;99824.16;;;3.98;47.42
57000;BME280;42891;50.006;21.964;2023-03-01T18:06:24;99831.91;;;4.36;48.41
57000;BME280;42891;50.006;21.964;2023-03-01T18:10:24;99834.44;;;4.20;48.44
57000;BME280;42891;50.006;21.964;2023-03-01T18:14:26;99825.53;;;4.24;48.69
57000;BME280;42891;50.006;21.964;2023-03-01T18:18:29;99824.81;;;4.03;49.40
57000;BME280;42891;50.006;21.964;2023-03-01T18:22:30;99813.00;;;3.94;50.03
57000;BME280;42891;50.006;21.964;2023-03-01T18:26:30;99807.38;;;4.21;51.01
57000;BME280;42891;50.006;21.964;2023-03-01T18:30:30;99813.91;;;4.30;50.19
57000;BME280;42891;50.006;21.964;2023-03-01T18:34:32;99806.81;;;4.14;50.69
57000;BME280;42891;50.006;21.964;2023-03-01T18:38:34;99816.03;;;4.04;52.06
57000;BME280;42891;50.006;21.964;2023-03-01T18:42:34;99815.34;;;4.00;52.25
57000;BME280;42891;50.006;21.964;2023-03-01T18:46:35;99827.34;;;4.04;53.65
57000;BME280;42891;50.006;21.964;2023-03-01T18:50:38;99809.88;;;4.05;51.49
57000;BME280;42891;50.006;21.964;2023-03-01T18:54:38;99819.50;;;4.04;51.16
57000;BME280;42891;50.006;21.964;2023-03-01T18:58:40;99832.91;;;3.97;52.69
57000;BME280;42891;50.006;21.964;2023-03-01T19:02:41;99835.13;;;3.87;52.73
57000;BME280;42891;50.006;21.964;2023-03-01T19:06:42;99817.16;;;3.62;53.37
57000;BME280;42891;50.006;21.964;2023-03-01T19:10:42;99818.22;;;3.57;54.17
57000;BME280;42891;50.006;21.964;2023-03-01T19:14:42;99820.00;;;3.57;53.15
57000;BME280;42891;50.006;21.964;2023-03-01T19:18:44;99824.56;;;3.71;53.07
57000;BME280;42891;50.006;21.964;2023-03-01T19:22:49;99826.09;;;3.37;53.98
57000;BME280;42891;50.006;21.964;2023-03-01T19:26:49;99807.16;;;3.33;54.65
57000;BME280;42891;50.006;21.964;2023-03-01T19:30:49;99821.81;;;3.17;54.67
57000;BME280;42891;50.006;21.964;2023-03-01T19:34:50;99827.72;;;2.81;55.03
57000;BME280;42891;50.006;21.964;2023-03-01T19:38:50;99807.31;;;2.49;55.99
57000;BME280;42891;50.006;21.964;2023-03-01T19:42:50;99814.81;;;2.57;56.33
57000;BME280;42891;50.006;21.964;2023-03-01T19:46:53;99814.94;;;2.54;56.25
57000;BME280;42891;50.006;21.964;2023-03-01T19:50:54;99816.31;;;2.83;57.19
57000;BME280;42891;50.006;21.964;2023-03-01T19:54:54;99824.47;;;2.76;55.70
57000;BME280;42891;50.006;21.964;2023-03-01T19:58:55;99821.00;;;2.54;56.17
57000;BME280;42891;50.006;21.964;2023-03-01T20:02:59;99830.72;;;2.51;57.06
57000;BME280;42891;50.006;21.964;2023-03-01T20:07:00;99841.50;;;2.64;57.50
57000;BME280;42891;50.006;21.964;2023-03-01T20:11:02;99828.38;;;2.65;57.48
57000;BME280;42891;50.006;21.964;2023-03-01T20:15:03;99838.25;;;2.36;57.36
57000;BME280;42891;50.006;21.964;2023-03-01T20:19:04;99837.94;;;2.24;57.67
57000;BME280;42891;50.006;21.964;2023-03-01T20:23:04;99824.44;;;2.14;57.71
57000;BME280;42891;50.006;21.964;2023-03-01T20:27:04;99835.31;;;2.24;57.53
57000;BME280;42891;50.006;21.964;2023-03-01T20:31:10;99827.09;;;2.33;58.32
57000;BME280;42891;50.006;21.964;2023-03-01T20:35:11;99798.91;;;2.00;57.83
57000;BME280;42891;50.006;21.964;2023-03-01T20:39:11;99826.41;;;1.63;59.93
57000;BME280;42891;50.006;21.964;2023-03-01T20:43:11;99819.88;;;1.97;59.11
57000;BME280;42891;50.006;21.964;2023-03-01T20:47:13;99824.66;;;2.08;59.18
57000;BME280;42891;50.006;21.964;2023-03-01T20:51:13;99829.09;;;2.06;58.59
57000;BME280;42891;50.006;21.964;2023-03-01T20:55:14;99826.53;;;2.04;59.78
57000;BME280;42891;50.006;21.964;2023-03-01T20:59:14;99819.72;;;2.01;58.38
57000;BME280;42891;50.006;21.964;2023-03-01T21:03:14;99835.34;;;2.01;58.64
57000;BME280;42891;50.006;21.964;2023-03-01T21:07:15;99837.06;;;2.01;58.30
57000;BME280;42891;50.006;21.964;2023-03-01T21:11:15;99830.28;;;1.97;58.91
57000;BME280;42891;50.006;21.964;2023-03-01T21:15:17;99814.19;;;1.87;58.73
57000;BME280;42891;50.006;21.964;2023-03-01T21:19:17;99830.13;;;1.79;60.01
57000;BME280;42891;50.006;21.964;2023-03-01T21:23:17;99828.59;;;1.74;60.77
57000;BME280;42891;50.006;21.964;2023-03-01T21:27:18;99833.47;;;1.59;61.09
57000;BME280;42891;50.006;21.964;2023-03-01T21:31:33;99819.34;;;1.43;61.41
57000;BME280;42891;50.006;21.964;2023-03-01T21:35:33;99811.66;;;1.40;61.22
57000;BME280;42891;50.006;21.964;2023-03-01T21:39:34;99836.94;;;1.60;61.06
57000;BME280;42891;50.006;21.964;2023-03-01T21:43:35;99838.47;;;1.65;60.84
57000;BME280;42891;50.006;21.964;2023-03-01T21:47:35;99841.22;;;1.61;60.04
57000;BME280;42891;50.006;21.964;2023-03-01T21:51:35;99830.25;;;1.52;61.31
57000;BME280;42891;50.006;21.964;2023-03-01T21:55:36;99806.28;;;1.44;61.11
57000;BME280;42891;50.006;21.964;2023-03-01T21:59:37;99834.38;;;1.58;60.53
57000;BME280;42891;50.006;21.964;2023-03-01T22:03:37;99844.13;;;1.53;61.68
57000;BME280;42891;50.006;21.964;2023-03-01T22:07:44;99828.84;;;1.44;62.21
57000;BME280;42891;50.006;21.964;2023-03-01T22:11:49;99839.09;;;1.48;61.65
57000;BME280;42891;50.006;21.964;2023-03-01T22:15:50;99826.88;;;1.27;62.11
57000;BME280;42891;50.006;21.964;2023-03-01T22:19:50;99835.97;;;1.39;62.15
57000;BME280;42891;50.006;21.964;2023-03-01T22:23:52;99826.88;;;1.27;61.27
57000;BME280;42891;50.006;21.964;2023-03-01T22:27:52;99808.00;;;1.22;62.34
57000;BME280;42891;50.006;21.964;2023-03-01T22:31:54;99809.97;;;1.15;61.84
57000;BME280;42891;50.006;21.964;2023-03-01T22:35:55;99809.19;;;0.89;62.40
57000;BME280;42891;50.006;21.964;2023-03-01T22:39:55;99800.50;;;0.89;63.21
57000;BME280;42891;50.006;21.964;2023-03-01T22:43:56;99826.22;;;0.73;64.33